createdAt,value
2017-07-22T00:01:23.740Z,4.80
2017-07-22T00:06:25.470Z,4.40
2017-07-22T00:11:27.211Z,4.03
2017-07-22T00:16:29.147Z,4.43
2017-07-22T00:21:31.097Z,4.83
2017-07-22T00:26:32.890Z,4.97
2017-07-22T00:31:34.716Z,5.13
2017-07-22T00:36:36.480Z,5.10
2017-07-22T00:41:39.068Z,4.33
2017-07-22T00:46:40.876Z,4.23
2017-07-22T00:51:42.628Z,4.60
2017-07-22T00:56:44.360Z,4.23
2017-07-22T01:01:47.664Z,3.93
2017-07-22T01:06:50.269Z,4.27
2017-07-22T01:11:53.472Z,3.93
2017-07-22T01:16:56.102Z,4.50
2017-07-22T01:21:58.547Z,4.10
2017-07-22T01:27:00.782Z,4.90
2017-07-22T01:32:03.102Z,4.33
2017-07-22T01:37:05.005Z,4.03
2017-07-22T01:42:07.374Z,3.70
2017-07-22T01:47:09.707Z,4.30
2017-07-22T01:52:12.041Z,4.63
2017-07-22T01:57:14.491Z,4.53
2017-07-22T02:02:16.892Z,4.40
2017-07-22T02:07:19.227Z,4.77
2017-07-22T02:12:21.654Z,4.37
2017-07-22T02:17:24.038Z,4.40
2017-07-22T02:22:26.380Z,4.63
2017-07-22T02:27:28.603Z,4.40
2017-07-22T02:32:30.563Z,5.80
2017-07-22T02:37:32.899Z,4.60
2017-07-22T02:42:34.743Z,5.07
2017-07-22T02:47:37.602Z,5.07
2017-07-22T02:52:39.412Z,5.50
2017-07-22T02:57:41.163Z,6.03
2017-07-22T03:02:43.501Z,5.73
2017-07-22T03:07:45.912Z,5.90
2017-07-22T03:12:48.209Z,6.00
2017-07-22T03:17:50.291Z,5.60
2017-07-22T03:22:52.620Z,5.37
2017-07-22T03:27:56.737Z,5.53
2017-07-22T03:32:59.907Z,5.93
2017-07-22T03:38:02.716Z,5.90
2017-07-22T03:43:07.279Z,6.47
2017-07-22T03:48:11.723Z,5.83
2017-07-22T03:53:15.238Z,6.60
2017-07-22T03:58:18.814Z,5.93
2017-07-22T04:03:25.209Z,5.37
2017-07-22T04:08:27.592Z,6.53
2017-07-22T04:13:30.992Z,6.50
2017-07-22T04:18:34.695Z,6.30
2017-07-22T04:23:37.569Z,5.87
2017-07-22T04:28:40.871Z,6.23
2017-07-22T04:33:42.820Z,6.80
2017-07-22T04:38:46.819Z,6.00
2017-07-22T04:43:49.647Z,6.80
2017-07-22T04:48:52.798Z,7.03
2017-07-22T04:53:55.199Z,6.10
2017-07-22T04:58:57.184Z,6.50
2017-07-22T05:03:59.478Z,6.40
2017-07-22T05:09:02.664Z,6.50
2017-07-22T05:14:05.738Z,6.30
2017-07-22T05:19:07.803Z,6.30
2017-07-22T05:24:10.139Z,6.00
2017-07-22T05:29:13.224Z,5.80
2017-07-22T05:34:15.515Z,6.10
2017-07-22T05:39:17.879Z,5.90
2017-07-22T05:44:20.457Z,7.23
2017-07-22T05:49:22.469Z,8.70
2017-07-22T05:54:24.768Z,8.03
2017-07-22T05:59:26.817Z,7.13
2017-07-22T06:04:29.175Z,9.17
2017-07-22T06:09:31.397Z,9.47
2017-07-22T06:14:33.210Z,10.37
2017-07-22T06:19:34.950Z,11.10
2017-07-22T06:24:36.715Z,12.60
2017-07-22T06:29:38.450Z,12.53
2017-07-22T06:34:40.163Z,12.50
2017-07-22T06:39:42.720Z,12.20
2017-07-22T06:44:44.455Z,14.70
2017-07-22T06:49:46.240Z,12.87
2017-07-22T06:54:50.602Z,15.70
2017-07-22T06:59:56.963Z,14.97
2017-07-22T07:05:04.481Z,15.10
2017-07-22T07:10:06.351Z,15.30
2017-07-22T07:15:08.111Z,15.90
2017-07-22T07:20:09.827Z,15.87
2017-07-22T07:25:11.567Z,16.00
2017-07-22T07:30:13.294Z,15.67
2017-07-22T07:35:16.538Z,15.57
2017-07-22T07:40:18.433Z,13.87
2017-07-22T07:45:20.432Z,12.00
2017-07-22T07:50:22.206Z,12.47
2017-07-22T07:55:24.424Z,13.07
2017-07-22T08:00:26.353Z,12.73
2017-07-22T08:05:28.246Z,13.53
2017-07-22T08:10:30.080Z,12.63
2017-07-22T08:15:31.833Z,11.50
2017-07-22T08:20:33.651Z,12.50
2017-07-22T08:25:35.395Z,11.43
2017-07-22T08:30:37.882Z,12.07
2017-07-22T08:35:39.598Z,9.37
2017-07-22T08:40:42.142Z,10.30
2017-07-22T08:45:43.994Z,9.10
2017-07-22T08:50:45.792Z,9.63
2017-07-22T08:55:47.550Z,9.87
2017-07-22T09:00:49.330Z,6.90
2017-07-22T09:05:51.093Z,7.50
2017-07-22T09:10:52.877Z,7.97
2017-07-22T09:15:55.438Z,7.00
2017-07-22T09:20:57.229Z,7.10
2017-07-22T09:25:58.951Z,7.67
2017-07-22T09:31:00.731Z,7.07
2017-07-22T09:36:02.519Z,7.13
2017-07-22T09:41:04.864Z,8.00
2017-07-22T09:46:06.603Z,6.53
2017-07-22T09:51:08.376Z,7.50
2017-07-22T09:56:10.951Z,7.00
2017-07-22T10:01:12.753Z,5.57
2017-07-22T10:06:14.646Z,4.90
2017-07-22T10:11:16.698Z,5.10
2017-07-22T10:16:18.468Z,4.47
2017-07-22T10:21:20.499Z,4.80
2017-07-22T10:26:22.474Z,4.63
2017-07-22T10:31:25.196Z,5.00
2017-07-22T10:36:27.051Z,4.17
2017-07-22T10:41:28.854Z,4.20
2017-07-22T10:46:30.665Z,4.50
2017-07-22T10:51:35.156Z,4.57
2017-07-22T10:56:37.253Z,4.07
2017-07-22T11:01:39.190Z,3.83
2017-07-22T11:06:40.951Z,4.20
2017-07-22T11:11:43.034Z,4.20
2017-07-22T11:16:44.815Z,4.00
2017-07-22T11:21:46.921Z,4.70
2017-07-22T11:26:48.751Z,4.13
2017-07-22T11:31:50.521Z,4.77
2017-07-22T11:36:53.826Z,4.30
2017-07-22T11:41:55.647Z,4.50
2017-07-22T11:46:57.555Z,4.63
2017-07-22T11:51:59.330Z,3.80
2017-07-22T11:57:01.147Z,3.90
2017-07-22T12:02:06.767Z,3.80
2017-07-22T12:07:09.157Z,3.70
2017-07-22T12:12:11.028Z,3.70
2017-07-22T12:17:13.118Z,3.83
2017-07-22T12:22:15.000Z,3.47
2017-07-22T12:27:20.307Z,3.67
2017-07-22T12:32:22.108Z,3.37
2017-07-22T12:37:24.630Z,3.60
2017-07-22T12:42:26.467Z,3.33
2017-07-22T12:47:28.258Z,3.43
2017-07-22T12:52:30.280Z,3.70
2017-07-22T12:57:32.173Z,4.03
2017-07-22T13:02:34.005Z,3.57
2017-07-22T13:07:35.906Z,3.40
2017-07-22T13:12:38.221Z,3.80
2017-07-22T13:17:40.236Z,3.53
2017-07-22T13:22:42.111Z,3.47
2017-07-22T13:27:43.973Z,3.97
2017-07-22T13:32:45.840Z,3.37
2017-07-22T13:37:47.643Z,2.53
2017-07-22T13:42:49.557Z,2.30
2017-07-22T13:47:55.118Z,3.20
2017-07-22T13:52:57.220Z,3.30
2017-07-22T13:57:59.367Z,3.00
2017-07-22T14:03:01.428Z,3.00
2017-07-22T14:08:03.326Z,3.10
2017-07-22T14:13:05.099Z,2.70
2017-07-22T14:18:06.938Z,2.90
2017-07-22T14:23:08.666Z,2.90
2017-07-22T14:28:10.897Z,2.97
2017-07-22T14:33:12.984Z,3.13
2017-07-22T14:38:15.184Z,2.63
2017-07-22T14:43:17.215Z,3.23
2017-07-22T14:48:18.988Z,3.20
2017-07-22T14:53:20.769Z,2.63
2017-07-22T14:58:22.553Z,2.83
2017-07-22T15:03:24.395Z,2.70
2017-07-22T15:08:26.218Z,3.33
2017-07-22T15:13:28.698Z,2.93
2017-07-22T15:18:30.459Z,3.10
2017-07-22T15:23:32.420Z,2.63
2017-07-22T15:28:34.586Z,2.87
2017-07-22T15:33:36.331Z,3.20
2017-07-22T15:38:38.093Z,2.60
2017-07-22T15:43:39.844Z,3.13
2017-07-22T15:48:41.579Z,3.23
2017-07-22T15:53:43.306Z,4.00
2017-07-22T15:58:45.322Z,3.97
2017-07-22T16:03:47.256Z,3.70
2017-07-22T16:08:49.124Z,4.03
2017-07-22T16:13:54.168Z,4.10
2017-07-22T16:18:59.352Z,4.00
2017-07-22T16:24:05.784Z,3.90
2017-07-22T16:29:07.571Z,3.87
2017-07-22T16:34:09.316Z,4.00
2017-07-22T16:39:11.128Z,4.07
2017-07-22T16:44:12.925Z,2.87
2017-07-22T16:49:14.768Z,3.47
2017-07-22T16:54:16.830Z,3.10
2017-07-22T16:59:18.603Z,5.10
2017-07-22T17:04:28.211Z,3.63
2017-07-22T17:09:30.010Z,3.30
2017-07-22T17:14:31.759Z,4.53
2017-07-22T17:19:33.634Z,5.20
2017-07-22T17:24:35.434Z,5.70
2017-07-22T17:29:37.200Z,5.10
2017-07-22T17:34:38.972Z,5.07
2017-07-22T17:39:40.756Z,5.00
2017-07-22T17:44:42.506Z,5.40
2017-07-22T17:49:45.024Z,6.53
2017-07-22T17:54:47.096Z,7.10
2017-07-22T17:59:48.852Z,7.80
2017-07-22T18:04:50.706Z,8.30
2017-07-22T18:09:52.633Z,7.27
2017-07-22T18:14:54.413Z,10.40
2017-07-22T18:19:56.204Z,9.70
2017-07-22T18:24:57.953Z,10.07
2017-07-22T18:30:00.091Z,10.93
2017-07-22T18:35:01.882Z,11.33
2017-07-22T18:40:04.747Z,10.00
2017-07-22T18:45:06.607Z,11.00
2017-07-22T18:50:08.362Z,11.80
2017-07-22T18:55:10.116Z,11.00
2017-07-22T19:00:11.860Z,11.50
2017-07-22T19:05:13.658Z,11.57
2017-07-22T19:10:16.138Z,11.10
2017-07-22T19:15:17.862Z,12.20
2017-07-22T19:20:19.779Z,11.23
2017-07-22T19:25:21.519Z,13.70
2017-07-22T19:30:23.360Z,12.50
2017-07-22T19:35:25.228Z,13.80
2017-07-22T19:40:27.728Z,14.10
2017-07-22T19:45:29.491Z,14.23
2017-07-22T19:50:31.311Z,14.87
2017-07-22T19:55:33.062Z,14.67
2017-07-22T20:00:34.920Z,15.20
2017-07-22T20:05:36.712Z,13.60
2017-07-22T20:10:39.232Z,14.10
2017-07-22T20:15:41.861Z,16.13
2017-07-22T20:20:44.332Z,14.50
2017-07-22T20:25:46.092Z,15.00
2017-07-22T20:30:47.810Z,14.83
2017-07-22T20:35:49.536Z,13.53
2017-07-22T20:40:52.040Z,14.37
2017-07-22T20:45:53.790Z,13.60
2017-07-22T20:50:55.522Z,14.43
2017-07-22T20:55:57.285Z,13.87
2017-07-22T21:00:59.062Z,14.77
2017-07-22T21:06:00.856Z,14.47
2017-07-22T21:11:02.615Z,13.80
2017-07-22T21:16:04.355Z,13.70
2017-07-22T21:21:06.107Z,15.03
2017-07-22T21:26:07.872Z,15.23
2017-07-22T21:31:10.350Z,15.70
2017-07-22T21:36:12.126Z,15.00
2017-07-22T21:41:13.854Z,16.83
2017-07-22T21:46:15.598Z,17.10
2017-07-22T21:51:17.340Z,18.40
2017-07-22T21:56:19.075Z,17.23
2017-07-22T22:01:20.834Z,17.20
2017-07-22T22:06:22.565Z,18.70
2017-07-22T22:11:24.306Z,17.90
2017-07-22T22:16:26.035Z,16.80
2017-07-22T22:21:27.806Z,18.50
2017-07-22T22:26:29.527Z,17.63
2017-07-22T22:31:31.257Z,18.40
2017-07-22T22:36:33.720Z,16.47
2017-07-22T22:41:35.601Z,16.90
2017-07-22T22:46:37.401Z,18.60
2017-07-22T22:51:39.214Z,18.70
2017-07-22T22:56:41.715Z,18.40
2017-07-22T23:01:43.434Z,16.67
2017-07-22T23:06:45.216Z,17.90
2017-07-22T23:11:46.933Z,17.20
2017-07-22T23:16:48.750Z,17.63
2017-07-22T23:21:50.558Z,16.93
2017-07-22T23:26:52.383Z,14.57
2017-07-22T23:31:54.176Z,17.10
2017-07-22T23:36:56.704Z,16.77
2017-07-22T23:41:58.655Z,16.77
2017-07-22T23:47:00.399Z,15.37
2017-07-22T23:52:02.156Z,16.87
2017-07-22T23:57:03.900Z,17.17
